Sovereign — 9HUE9 — position and weather

sailwx.info

Track history (hours):
 
Tides and Currents Weather Stations Pressure Air Temp Water Temp Dewpoint Dewpoint Depression Visibility Wind Speed Wind Dir Waves Ship Positions

Sovereign

Last reported at 2017-Jan-20 00:25 UTC. Time now 2017-Jan-21 15:34 UTC.
Position S 23°18' W 042°37'.

Length 269 m; draft 7.7 m.

Type: Passenger vessel. MMSI: 249539000.

Date/timePositionNaut miles runAvg speedWind from/ knotsBaromVisibWave heightAir tempDewpointWater temp
2017-Jan-20 00:25S 23°18' W 042°37'1010.6
2017-Jan-19 23:31S 23°18' W 042°47'21 9.7
2017-Jan-19 21:19S 23°03' W 043°04'810.1
2017-Jan-19 20:33S 22°57' W 043°08'4 3.6
2017-Jan-19 19:28S 22°54' W 043°11'0 0.0
2017-Jan-19 18:28S 22°54' W 043°11'0 0.0
2017-Jan-19 17:28S 22°54' W 043°11'0 0.0
2017-Jan-19 16:28S 22°54' W 043°11'0 0.0
2017-Jan-19 15:28S 22°54' W 043°11'0 0.0
2017-Jan-19 14:22S 22°54' W 043°11'0 0.0
2017-Jan-19 13:16S 22°54' W 043°11'0 0.0
2017-Jan-19 12:28S 22°54' W 043°11'0 0.0
2017-Jan-19 11:28S 22°54' W 043°11'1 1.2
2017-Jan-19 10:33S 22°53' W 043°10'7 6.7
2017-Jan-19 09:33S 22°60' W 043°09'1615.4
2017-Jan-19 08:32S 23°15' W 043°13'17414.6
2017-Jan-18 20:33S 24°04' W 046°16'6 6.4
2017-Jan-18 19:33S 23°58' W 046°18'1 0.2
2017-Jan-18 13:18S 23°57' W 046°19'0 0.0
2017-Jan-18 12:30S 23°57' W 046°19'0 0.0
2017-Jan-18 09:32S 23°57' W 046°19'3 2.9
2017-Jan-18 08:33S 23°60' W 046°20'7 6.9
2017-Jan-18 07:33S 24°05' W 046°15'8 7.5
2017-Jan-18 06:33S 24°08' W 046°07'8 7.6
2017-Jan-18 05:33S 24°14' W 046°02'8 7.7
2017-Jan-18 04:33S 24°19' W 045°56'7 7.4
2017-Jan-18 03:33S 24°24' W 045°49'8 7.9
2017-Jan-18 02:33S 24°25' W 045°41'8 7.8
2017-Jan-18 01:33S 24°25' W 045°32'225 8.9
2017-Jan-17 00:21S 23°04' W 041°42'7 9.0
2017-Jan-16 23:33S 22°59' W 041°37'58 2.5
2017-Jan-16 00:29S 23°18' W 042°37'9 9.9
2017-Jan-15 23:32S 23°18' W 042°47'22 9.8
2017-Jan-15 21:18S 23°03' W 043°04'810.9
2017-Jan-15 20:33S 22°56' W 043°08'4 3.6
2017-Jan-15 19:32S 22°54' W 043°11'0 0.0
2017-Jan-15 18:32S 22°54' W 043°11'0 0.0
2017-Jan-15 17:20S 22°54' W 043°11'0 0.0
2017-Jan-15 16:32S 22°54' W 043°11'0 0.0
2017-Jan-15 15:32S 22°54' W 043°11'0 0.0
2017-Jan-15 14:32S 22°54' W 043°11'0 0.0
2017-Jan-15 13:26S 22°54' W 043°11'0 0.0
2017-Jan-15 12:08S 22°54' W 043°11'0 0.0
2017-Jan-15 11:32S 22°54' W 043°11'0 0.2
2017-Jan-15 10:33S 22°53' W 043°11'8 7.7
2017-Jan-15 09:32S 23°01' W 043°09'2013.9
2017-Jan-15 08:04S 23°19' W 043°19'16814.6
2017-Jan-14 20:33S 24°04' W 046°16'7 6.6
2017-Jan-14 19:33S 23°57' W 046°18'0 0.1
2017-Jan-14 15:17S 23°57' W 046°19'0 0.0
2017-Jan-14 14:11S 23°57' W 046°19'0 0.0
2017-Jan-14 13:32S 23°57' W 046°19'0 0.0
2017-Jan-14 10:32S 23°57' W 046°19'0 0.0
2017-Jan-14 09:33S 23°57' W 046°19'3 2.8
2017-Jan-14 08:33S 23°60' W 046°20'7 7.1
2017-Jan-14 07:32S 24°04' W 046°14'7 7.1
2017-Jan-14 06:33S 24°07' W 046°07'9 8.6
2017-Jan-14 05:33S 24°14' W 046°01'9 8.7
2017-Jan-14 04:33S 24°22' W 045°57'198 3.9
2017-Jan-12 01:08S 23°18' W 042°31'610.4
2017-Jan-12 00:33S 23°18' W 042°38'1010.4
2017-Jan-11 23:33S 23°19' W 042°49'2310.3
2017-Jan-11 21:20S 23°01' W 043°05'911.1
2017-Jan-11 20:34S 22°53' W 043°10'1 0.5
2017-Jan-11 17:31S 22°54' W 043°11'0 0.0
2017-Jan-11 12:19S 22°54' W 043°11'0 0.0
2017-Jan-11 11:07S 22°54' W 043°11'0 0.5
2017-Jan-11 10:33S 22°53' W 043°11'8 7.9
2017-Jan-11 09:33S 23°01' W 043°09'18213.7
2017-Jan-10 20:17S 24°04' W 046°16'5 6.5
2017-Jan-10 19:33S 23°60' W 046°18'2 2.4
2017-Jan-10 18:32S 23°57' W 046°19'0 0.0
2017-Jan-10 17:05S 23°57' W 046°19'0 0.0
2017-Jan-10 16:23S 23°57' W 046°19'0 0.0
2017-Jan-10 15:23S 23°57' W 046°19'0 0.0
2017-Jan-10 14:29S 23°57' W 046°19'0 0.0
2017-Jan-10 13:23S 23°57' W 046°19'0 0.0
2017-Jan-10 11:20S 23°57' W 046°19'0 0.1
2017-Jan-10 09:33S 23°57' W 046°18'3 2.8
2017-Jan-10 08:33S 23°60' W 046°20'6 6.1
2017-Jan-10 07:33S 24°05' W 046°16'6 6.4
2017-Jan-10 06:33S 24°06' W 046°09'7 7.2
2017-Jan-10 05:34S 24°13' W 046°06'8 7.7
2017-Jan-10 04:33S 24°17' W 045°59'8 7.6
2017-Jan-10 03:33S 24°22' W 045°52'10 7.3
2017-Jan-10 02:10S 24°24' W 045°41'  
Track history (hours):
 
Tides and Currents Weather Stations Pressure Air Temp Water Temp Dewpoint Dewpoint Depression Visibility Wind Speed Wind Dir Waves Ship Positions

Sovereign

Last reported at 2017-Jan-20 00:25 UTC. Time now 2017-Jan-21 15:34 UTC.
Position S 23°18' W 042°37'.

Length 269 m; draft 7.7 m.

Type: Passenger vessel. MMSI: 249539000.

Date/timePositionNaut miles runAvg speedWind from/ knotsBaromVisibWave heightAir tempDewpointWater temp
2017-Jan-20 00:25S 23°18' W 042°37'1010.6
2017-Jan-19 23:31S 23°18' W 042°47'21 9.7
2017-Jan-19 21:19S 23°03' W 043°04'810.1
2017-Jan-19 20:33S 22°57' W 043°08'4 3.6
2017-Jan-19 19:28S 22°54' W 043°11'0 0.0
2017-Jan-19 18:28S 22°54' W 043°11'0 0.0
2017-Jan-19 17:28S 22°54' W 043°11'0 0.0
2017-Jan-19 16:28S 22°54' W 043°11'0 0.0
2017-Jan-19 15:28S 22°54' W 043°11'0 0.0
2017-Jan-19 14:22S 22°54' W 043°11'0 0.0
2017-Jan-19 13:16S 22°54' W 043°11'0 0.0
2017-Jan-19 12:28S 22°54' W 043°11'0 0.0
2017-Jan-19 11:28S 22°54' W 043°11'1 1.2
2017-Jan-19 10:33S 22°53' W 043°10'7 6.7
2017-Jan-19 09:33S 22°60' W 043°09'1615.4
2017-Jan-19 08:32S 23°15' W 043°13'17414.6
2017-Jan-18 20:33S 24°04' W 046°16'6 6.4
2017-Jan-18 19:33S 23°58' W 046°18'1 0.2
2017-Jan-18 13:18S 23°57' W 046°19'0 0.0
2017-Jan-18 12:30S 23°57' W 046°19'0 0.0
2017-Jan-18 09:32S 23°57' W 046°19'3 2.9
2017-Jan-18 08:33S 23°60' W 046°20'7 6.9
2017-Jan-18 07:33S 24°05' W 046°15'8 7.5
2017-Jan-18 06:33S 24°08' W 046°07'8 7.6
2017-Jan-18 05:33S 24°14' W 046°02'8 7.7
2017-Jan-18 04:33S 24°19' W 045°56'7 7.4
2017-Jan-18 03:33S 24°24' W 045°49'8 7.9
2017-Jan-18 02:33S 24°25' W 045°41'8 7.8
2017-Jan-18 01:33S 24°25' W 045°32'225 8.9
2017-Jan-17 00:21S 23°04' W 041°42'7 9.0
2017-Jan-16 23:33S 22°59' W 041°37'58 2.5
2017-Jan-16 00:29S 23°18' W 042°37'9 9.9
2017-Jan-15 23:32S 23°18' W 042°47'22 9.8
2017-Jan-15 21:18S 23°03' W 043°04'810.9
2017-Jan-15 20:33S 22°56' W 043°08'4 3.6
2017-Jan-15 19:32S 22°54' W 043°11'0 0.0
2017-Jan-15 18:32S 22°54' W 043°11'0 0.0
2017-Jan-15 17:20S 22°54' W 043°11'0 0.0
2017-Jan-15 16:32S 22°54' W 043°11'0 0.0
2017-Jan-15 15:32S 22°54' W 043°11'0 0.0
2017-Jan-15 14:32S 22°54' W 043°11'0 0.0
2017-Jan-15 13:26S 22°54' W 043°11'0 0.0
2017-Jan-15 12:08S 22°54' W 043°11'0 0.0
2017-Jan-15 11:32S 22°54' W 043°11'0 0.2
2017-Jan-15 10:33S 22°53' W 043°11'8 7.7
2017-Jan-15 09:32S 23°01' W 043°09'2013.9
2017-Jan-15 08:04S 23°19' W 043°19'16814.6
2017-Jan-14 20:33S 24°04' W 046°16'7 6.6
2017-Jan-14 19:33S 23°57' W 046°18'0 0.1
2017-Jan-14 15:17S 23°57' W 046°19'0 0.0
2017-Jan-14 14:11S 23°57' W 046°19'0 0.0
2017-Jan-14 13:32S 23°57' W 046°19'0 0.0
2017-Jan-14 10:32S 23°57' W 046°19'0 0.0
2017-Jan-14 09:33S 23°57' W 046°19'3 2.8
2017-Jan-14 08:33S 23°60' W 046°20'7 7.1
2017-Jan-14 07:32S 24°04' W 046°14'7 7.1
2017-Jan-14 06:33S 24°07' W 046°07'9 8.6
2017-Jan-14 05:33S 24°14' W 046°01'9 8.7
2017-Jan-14 04:33S 24°22' W 045°57'198 3.9
2017-Jan-12 01:08S 23°18' W 042°31'610.4
2017-Jan-12 00:33S 23°18' W 042°38'1010.4
2017-Jan-11 23:33S 23°19' W 042°49'2310.3
2017-Jan-11 21:20S 23°01' W 043°05'911.1
2017-Jan-11 20:34S 22°53' W 043°10'1 0.5
2017-Jan-11 17:31S 22°54' W 043°11'0 0.0
2017-Jan-11 12:19S 22°54' W 043°11'0 0.0
2017-Jan-11 11:07S 22°54' W 043°11'0 0.5
2017-Jan-11 10:33S 22°53' W 043°11'8 7.9
2017-Jan-11 09:33S 23°01' W 043°09'18213.7
2017-Jan-10 20:17S 24°04' W 046°16'5 6.5
2017-Jan-10 19:33S 23°60' W 046°18'2 2.4
2017-Jan-10 18:32S 23°57' W 046°19'0 0.0
2017-Jan-10 17:05S 23°57' W 046°19'0 0.0
2017-Jan-10 16:23S 23°57' W 046°19'0 0.0
2017-Jan-10 15:23S 23°57' W 046°19'0 0.0
2017-Jan-10 14:29S 23°57' W 046°19'0 0.0
2017-Jan-10 13:23S 23°57' W 046°19'0 0.0
2017-Jan-10 11:20S 23°57' W 046°19'0 0.1
2017-Jan-10 09:33S 23°57' W 046°18'3 2.8
2017-Jan-10 08:33S 23°60' W 046°20'6 6.1
2017-Jan-10 07:33S 24°05' W 046°16'6 6.4
2017-Jan-10 06:33S 24°06' W 046°09'7 7.2
2017-Jan-10 05:34S 24°13' W 046°06'8 7.7
2017-Jan-10 04:33S 24°17' W 045°59'8 7.6
2017-Jan-10 03:33S 24°22' W 045°52'10 7.3
2017-Jan-10 02:10S 24°24' W 045°41'  

Dump ship's entire track history